sensor_id;sensor_type;location;lat;lon;timestamp;pressure;altitude;pressure_sealevel;temperature;humidity
76603;BME280;65075;48.390;17.598;2023-04-29T00:00:22;99538.31;;;14.23;56.43
76603;BME280;65075;48.390;17.598;2023-04-29T00:02:47;99544.88;;;16.48;50.90
76603;BME280;65075;48.390;17.598;2023-04-29T00:05:13;99550.06;;;14.48;55.14
76603;BME280;65075;48.390;17.598;2023-04-29T00:07:38;99540.84;;;13.10;59.75
76603;BME280;65075;48.390;17.598;2023-04-29T00:10:04;99546.16;;;13.59;59.10
76603;BME280;65075;48.390;17.598;2023-04-29T00:12:30;99495.09;;;13.39;58.06
76603;BME280;65075;48.390;17.598;2023-04-29T00:14:58;99542.59;;;13.58;59.11
76603;BME280;65075;48.390;17.598;2023-04-29T00:17:25;99545.66;;;12.89;61.19
76603;BME280;65075;48.390;17.598;2023-04-29T00:19:50;99535.59;;;14.18;58.22
76603;BME280;65075;48.390;17.598;2023-04-29T00:22:16;99530.13;;;14.79;56.28
76603;BME280;65075;48.390;17.598;2023-04-29T00:24:42;99524.34;;;14.20;57.79
76603;BME280;65075;48.390;17.598;2023-04-29T00:27:07;99518.19;;;15.54;53.68
76603;BME280;65075;48.390;17.598;2023-04-29T00:29:33;99518.41;;;15.84;53.09
76603;BME280;65075;48.390;17.598;2023-04-29T00:31:58;99515.16;;;15.04;55.17
76603;BME280;65075;48.390;17.598;2023-04-29T00:34:24;99521.47;;;15.37;53.72
76603;BME280;65075;48.390;17.598;2023-04-29T00:36:49;99529.63;;;13.06;60.33
76603;BME280;65075;48.390;17.598;2023-04-29T00:39:15;99506.47;;;13.80;58.96
76603;BME280;65075;48.390;17.598;2023-04-29T00:41:41;99490.50;;;14.24;56.97
76603;BME280;65075;48.390;17.598;2023-04-29T00:44:06;99519.72;;;14.76;56.37
76603;BME280;65075;48.390;17.598;2023-04-29T00:46:32;99516.09;;;14.44;55.99
76603;BME280;65075;48.390;17.598;2023-04-29T00:48:58;99509.38;;;13.89;57.52
76603;BME280;65075;48.390;17.598;2023-04-29T00:51:25;99514.72;;;13.51;59.83
76603;BME280;65075;48.390;17.598;2023-04-29T00:53:51;99488.31;;;12.69;61.05
76603;BME280;65075;48.390;17.598;2023-04-29T00:56:17;99517.28;;;14.14;57.76
76603;BME280;65075;48.390;17.598;2023-04-29T00:58:45;99484.63;;;14.36;56.38
76603;BME280;65075;48.390;17.598;2023-04-29T01:01:18;99513.81;;;15.34;53.25
76603;BME280;65075;48.390;17.598;2023-04-29T01:03:45;99516.97;;;15.27;53.47
76603;BME280;65075;48.390;17.598;2023-04-29T01:06:33;99512.94;;;16.47;51.18
76603;BME280;65075;48.390;17.598;2023-04-29T01:12:18;99528.41;;;18.29;46.04
76603;BME280;65075;48.390;17.598;2023-04-29T01:14:53;99527.56;;;18.12;46.77
76603;BME280;65075;48.390;17.598;2023-04-29T01:17:24;99526.53;;;15.49;52.91
76603;BME280;65075;48.390;17.598;2023-04-29T01:19:55;99530.59;;;17.18;49.91
76603;BME280;65075;48.390;17.598;2023-04-29T01:22:23;99544.00;;;17.33;48.78
76603;BME280;65075;48.390;17.598;2023-04-29T01:24:49;99536.94;;;17.63;48.68
76603;BME280;65075;48.390;17.598;2023-04-29T01:27:24;99537.19;;;17.08;49.50
76603;BME280;65075;48.390;17.598;2023-04-29T01:32:52;99524.69;;;16.39;51.72
76603;BME280;65075;48.390;17.598;2023-04-29T01:38:00;99535.38;;;14.76;56.02
76603;BME280;65075;48.390;17.598;2023-04-29T01:40:46;99520.97;;;14.84;55.80
76603;BME280;65075;48.390;17.598;2023-04-29T01:43:14;99514.69;;;14.65;55.06
76603;BME280;65075;48.390;17.598;2023-04-29T01:45:40;99518.03;;;14.62;56.83
76603;BME280;65075;48.390;17.598;2023-04-29T01:48:08;99515.94;;;12.68;61.30
76603;BME280;65075;48.390;17.598;2023-04-29T01:50:34;99524.78;;;12.93;60.64
76603;BME280;65075;48.390;17.598;2023-04-29T01:52:59;99526.03;;;12.77;61.38
76603;BME280;65075;48.390;17.598;2023-04-29T01:55:25;99533.59;;;13.29;60.33
76603;BME280;65075;48.390;17.598;2023-04-29T01:57:50;99533.03;;;13.56;59.70
76603;BME280;65075;48.390;17.598;2023-04-29T02:00:16;99516.69;;;14.78;55.25
76603;BME280;65075;48.390;17.598;2023-04-29T02:02:42;99527.78;;;15.05;55.04
76603;BME280;65075;48.390;17.598;2023-04-29T02:05:07;99533.78;;;16.40;50.71
76603;BME280;65075;48.390;17.598;2023-04-29T02:07:34;99531.84;;;16.13;51.96
76603;BME280;65075;48.390;17.598;2023-04-29T02:09:59;99518.63;;;16.15;50.75
76603;BME280;65075;48.390;17.598;2023-04-29T02:12:25;99519.69;;;16.41;49.61
76603;BME280;65075;48.390;17.598;2023-04-29T02:14:53;99518.38;;;14.13;55.27
76603;BME280;65075;48.390;17.598;2023-04-29T02:17:19;99517.00;;;14.58;55.26
76603;BME280;65075;48.390;17.598;2023-04-29T02:19:44;99506.44;;;14.65;54.79
76603;BME280;65075;48.390;17.598;2023-04-29T02:22:10;99514.19;;;12.87;60.19
76603;BME280;65075;48.390;17.598;2023-04-29T02:24:37;99514.16;;;13.78;58.05
76603;BME280;65075;48.390;17.598;2023-04-29T02:27:03;99512.09;;;13.65;58.81
76603;BME280;65075;48.390;17.598;2023-04-29T02:29:30;99502.78;;;13.66;58.39
76603;BME280;65075;48.390;17.598;2023-04-29T02:31:56;99497.34;;;13.03;59.74
76603;BME280;65075;48.390;17.598;2023-04-29T02:34:22;99513.81;;;12.98;59.49
76603;BME280;65075;48.390;17.598;2023-04-29T02:36:48;99513.81;;;12.98;60.76
76603;BME280;65075;48.390;17.598;2023-04-29T02:39:14;99501.94;;;13.42;58.43
76603;BME280;65075;48.390;17.598;2023-04-29T02:41:40;99489.75;;;14.00;56.54
76603;BME280;65075;48.390;17.598;2023-04-29T02:44:06;99507.78;;;14.86;54.65
76603;BME280;65075;48.390;17.598;2023-04-29T02:46:32;99516.63;;;14.46;55.11
76603;BME280;65075;48.390;17.598;2023-04-29T02:48:59;99491.19;;;14.16;56.38
76603;BME280;65075;48.390;17.598;2023-04-29T02:51:26;99518.91;;;13.44;58.17
76603;BME280;65075;48.390;17.598;2023-04-29T02:53:52;99530.16;;;12.75;60.88
76603;BME280;65075;48.390;17.598;2023-04-29T02:56:18;99529.81;;;13.49;58.67
76603;BME280;65075;48.390;17.598;2023-04-29T02:58:43;99524.91;;;13.98;57.04
76603;BME280;65075;48.390;17.598;2023-04-29T03:01:09;99536.66;;;12.84;61.10
76603;BME280;65075;48.390;17.598;2023-04-29T03:03:35;99531.81;;;13.04;60.32
76603;BME280;65075;48.390;17.598;2023-04-29T03:06:00;99534.22;;;13.16;60.88
76603;BME280;65075;48.390;17.598;2023-04-29T03:08:26;99492.03;;;13.46;58.30
76603;BME280;65075;48.390;17.598;2023-04-29T03:10:52;99522.94;;;13.23;59.46
76603;BME280;65075;48.390;17.598;2023-04-29T03:13:18;99515.09;;;13.68;59.09
76603;BME280;65075;48.390;17.598;2023-04-29T03:15:44;99515.44;;;12.99;59.65
76603;BME280;65075;48.390;17.598;2023-04-29T03:18:10;99502.63;;;13.81;57.59
76603;BME280;65075;48.390;17.598;2023-04-29T03:20:35;99490.94;;;13.94;57.09
76603;BME280;65075;48.390;17.598;2023-04-29T03:23:01;99513.59;;;13.81;58.77
76603;BME280;65075;48.390;17.598;2023-04-29T03:25:27;99507.81;;;14.01;57.77
76603;BME280;65075;48.390;17.598;2023-04-29T03:27:53;99515.97;;;16.10;51.59
76603;BME280;65075;48.390;17.598;2023-04-29T03:30:18;99524.84;;;15.80;52.58
76603;BME280;65075;48.390;17.598;2023-04-29T03:32:44;99525.66;;;15.94;52.51
76603;BME280;65075;48.390;17.598;2023-04-29T03:35:09;99503.63;;;15.67;52.51
76603;BME280;65075;48.390;17.598;2023-04-29T03:37:36;99526.88;;;15.88;51.71
76603;BME280;65075;48.390;17.598;2023-04-29T03:40:01;99514.50;;;13.95;56.39
76603;BME280;65075;48.390;17.598;2023-04-29T03:42:28;99498.28;;;14.60;54.91
76603;BME280;65075;48.390;17.598;2023-04-29T03:44:54;99484.66;;;14.31;55.58
76603;BME280;65075;48.390;17.598;2023-04-29T03:47:20;99501.13;;;13.65;57.83
76603;BME280;65075;48.390;17.598;2023-04-29T03:49:45;99509.94;;;12.66;60.84
76603;BME280;65075;48.390;17.598;2023-04-29T03:52:11;99518.53;;;13.79;57.54
76603;BME280;65075;48.390;17.598;2023-04-29T03:54:37;99516.59;;;14.03;56.69
76603;BME280;65075;48.390;17.598;2023-04-29T03:57:02;99525.94;;;14.02;57.27
76603;BME280;65075;48.390;17.598;2023-04-29T03:59:29;99536.78;;;13.36;57.65
76603;BME280;65075;48.390;17.598;2023-04-29T04:01:54;99533.91;;;14.46;55.53
76603;BME280;65075;48.390;17.598;2023-04-29T04:04:20;99546.34;;;15.45;52.86
76603;BME280;65075;48.390;17.598;2023-04-29T04:06:46;99535.00;;;15.66;52.32
76603;BME280;65075;48.390;17.598;2023-04-29T04:09:17;99543.31;;;16.83;48.58
76603;BME280;65075;48.390;17.598;2023-04-29T04:11:43;99544.31;;;17.09;47.27
76603;BME280;65075;48.390;17.598;2023-04-29T04:14:08;99544.91;;;15.94;50.18
76603;BME280;65075;48.390;17.598;2023-04-29T04:16:34;99548.38;;;16.54;49.75
76603;BME280;65075;48.390;17.598;2023-04-29T04:19:00;99538.84;;;16.74;47.93
76603;BME280;65075;48.390;17.598;2023-04-29T04:21:26;99486.41;;;16.87;47.29
76603;BME280;65075;48.390;17.598;2023-04-29T04:23:52;99533.19;;;16.02;50.20
76603;BME280;65075;48.390;17.598;2023-04-29T04:26:17;99528.59;;;14.31;54.53
76603;BME280;65075;48.390;17.598;2023-04-29T04:28:45;99526.28;;;13.72;56.30
76603;BME280;65075;48.390;17.598;2023-04-29T04:31:11;99525.81;;;13.07;58.93
76603;BME280;65075;48.390;17.598;2023-04-29T04:33:40;99534.03;;;13.36;57.56
76603;BME280;65075;48.390;17.598;2023-04-29T04:36:06;99520.25;;;13.46;57.11
76603;BME280;65075;48.390;17.598;2023-04-29T04:38:32;99514.25;;;13.15;58.69
76603;BME280;65075;48.390;17.598;2023-04-29T04:40:58;99513.56;;;13.29;57.81
76603;BME280;65075;48.390;17.598;2023-04-29T04:43:23;99514.88;;;14.50;55.12
76603;BME280;65075;48.390;17.598;2023-04-29T04:45:49;99511.06;;;15.93;50.88
76603;BME280;65075;48.390;17.598;2023-04-29T04:48:15;99475.41;;;15.61;50.61
76603;BME280;65075;48.390;17.598;2023-04-29T04:50:40;99498.81;;;14.19;54.56
76603;BME280;65075;48.390;17.598;2023-04-29T04:53:06;99481.31;;;14.90;54.06
76603;BME280;65075;48.390;17.598;2023-04-29T04:55:32;99513.41;;;14.76;53.36
76603;BME280;65075;48.390;17.598;2023-04-29T04:57:58;99512.06;;;15.84;50.85
76603;BME280;65075;48.390;17.598;2023-04-29T05:00:23;99509.63;;;14.53;54.48
76603;BME280;65075;48.390;17.598;2023-04-29T05:02:49;99500.03;;;15.53;51.97
76603;BME280;65075;48.390;17.598;2023-04-29T05:05:14;99511.25;;;15.70;51.80
76603;BME280;65075;48.390;17.598;2023-04-29T05:07:40;99512.31;;;16.78;49.16
76603;BME280;65075;48.390;17.598;2023-04-29T05:10:06;99501.00;;;17.10;47.94
76603;BME280;65075;48.390;17.598;2023-04-29T05:12:32;99504.94;;;16.10;49.79
76603;BME280;65075;48.390;17.598;2023-04-29T05:15:00;99514.09;;;14.49;55.01
76603;BME280;65075;48.390;17.598;2023-04-29T05:17:25;99506.16;;;15.50;52.56
76603;BME280;65075;48.390;17.598;2023-04-29T05:19:51;99512.91;;;14.74;53.39
76603;BME280;65075;48.390;17.598;2023-04-29T05:22:17;99519.78;;;14.53;54.54
76603;BME280;65075;48.390;17.598;2023-04-29T05:24:42;99511.06;;;16.07;50.40
76603;BME280;65075;48.390;17.598;2023-04-29T05:27:08;99520.25;;;17.77;45.93
76603;BME280;65075;48.390;17.598;2023-04-29T05:29:33;99528.94;;;16.73;47.93
76603;BME280;65075;48.390;17.598;2023-04-29T05:31:59;99532.66;;;16.27;49.43
76603;BME280;65075;48.390;17.598;2023-04-29T05:34:24;99527.34;;;17.16;47.27
76603;BME280;65075;48.390;17.598;2023-04-29T05:36:50;99525.53;;;15.72;50.19
76603;BME280;65075;48.390;17.598;2023-04-29T05:39:16;99534.94;;;14.69;53.18
76603;BME280;65075;48.390;17.598;2023-04-29T05:41:42;99543.31;;;15.15;52.03
76603;BME280;65075;48.390;17.598;2023-04-29T05:44:08;99543.75;;;15.03;52.70
76603;BME280;65075;48.390;17.598;2023-04-29T05:46:34;99555.19;;;13.59;56.87
76603;BME280;65075;48.390;17.598;2023-04-29T05:48:59;99556.84;;;15.43;51.83
76603;BME280;65075;48.390;17.598;2023-04-29T05:51:25;99548.81;;;14.59;53.72
76603;BME280;65075;48.390;17.598;2023-04-29T05:53:53;99553.47;;;14.40;53.88
76603;BME280;65075;48.390;17.598;2023-04-29T05:56:19;99551.19;;;13.52;57.01
76603;BME280;65075;48.390;17.598;2023-04-29T05:58:44;99553.09;;;13.51;58.40
76603;BME280;65075;48.390;17.598;2023-04-29T06:01:10;99555.78;;;14.51;55.35
76603;BME280;65075;48.390;17.598;2023-04-29T06:03:36;99558.56;;;15.72;52.11
76603;BME280;65075;48.390;17.598;2023-04-29T06:06:02;99568.19;;;15.23;52.44
76603;BME280;65075;48.390;17.598;2023-04-29T06:08:28;99554.09;;;13.60;57.19
76603;BME280;65075;48.390;17.598;2023-04-29T06:10:53;99540.34;;;14.37;55.82
76603;BME280;65075;48.390;17.598;2023-04-29T06:13:19;99580.38;;;14.80;55.02
76603;BME280;65075;48.390;17.598;2023-04-29T06:15:44;99561.53;;;14.92;55.04
76603;BME280;65075;48.390;17.598;2023-04-29T06:18:10;99578.47;;;14.14;56.63
76603;BME280;65075;48.390;17.598;2023-04-29T06:20:36;99548.44;;;15.67;50.76
76603;BME280;65075;48.390;17.598;2023-04-29T06:23:02;99584.59;;;14.91;53.52
76603;BME280;65075;48.390;17.598;2023-04-29T06:25:27;99574.56;;;14.20;54.22
76603;BME280;65075;48.390;17.598;2023-04-29T06:27:53;99549.84;;;14.81;52.65
76603;BME280;65075;48.390;17.598;2023-04-29T06:30:18;99529.53;;;14.21;54.65
76603;BME280;65075;48.390;17.598;2023-04-29T06:32:44;99562.44;;;14.21;55.09
76603;BME280;65075;48.390;17.598;2023-04-29T06:35:12;99559.09;;;14.06;55.35
76603;BME280;65075;48.390;17.598;2023-04-29T06:37:38;99555.72;;;14.56;53.88
76603;BME280;65075;48.390;17.598;2023-04-29T06:40:04;99567.75;;;14.79;53.69
76603;BME280;65075;48.390;17.598;2023-04-29T06:42:30;99535.84;;;15.93;50.59
76603;BME280;65075;48.390;17.598;2023-04-29T06:44:56;99566.00;;;18.48;44.43
76603;BME280;65075;48.390;17.598;2023-04-29T06:47:21;99573.72;;;17.14;47.08
76603;BME280;65075;48.390;17.598;2023-04-29T06:49:48;99564.47;;;16.96;46.90
76603;BME280;65075;48.390;17.598;2023-04-29T06:52:13;99584.75;;;17.14;47.35
76603;BME280;65075;48.390;17.598;2023-04-29T06:54:39;99578.75;;;17.34;46.95
76603;BME280;65075;48.390;17.598;2023-04-29T06:57:04;99567.88;;;18.30;43.27
76603;BME280;65075;48.390;17.598;2023-04-29T06:59:30;99576.78;;;18.18;43.75
76603;BME280;65075;48.390;17.598;2023-04-29T07:01:57;99596.75;;;17.18;46.27
76603;BME280;65075;48.390;17.598;2023-04-29T07:04:22;99599.78;;;16.58;48.98
76603;BME280;65075;48.390;17.598;2023-04-29T07:06:48;99597.13;;;16.53;47.77
76603;BME280;65075;48.390;17.598;2023-04-29T07:09:14;99608.38;;;13.87;54.95
76603;BME280;65075;48.390;17.598;2023-04-29T07:11:40;99608.56;;;15.04;53.18
76603;BME280;65075;48.390;17.598;2023-04-29T07:14:06;99574.25;;;14.46;54.34
76603;BME280;65075;48.390;17.598;2023-04-29T07:16:32;99583.63;;;14.21;55.18
76603;BME280;65075;48.390;17.598;2023-04-29T07:18:58;99541.63;;;14.20;54.99
76603;BME280;65075;48.390;17.598;2023-04-29T07:21:24;99569.38;;;13.04;59.19
76603;BME280;65075;48.390;17.598;2023-04-29T07:23:50;99560.81;;;13.15;59.13
76603;BME280;65075;48.390;17.598;2023-04-29T07:26:16;99606.78;;;13.24;62.13
76603;BME280;65075;48.390;17.598;2023-04-29T07:28:42;99604.97;;;13.43;62.08
76603;BME280;65075;48.390;17.598;2023-04-29T07:31:08;99593.53;;;13.64;60.74
76603;BME280;65075;48.390;17.598;2023-04-29T07:33:34;99617.34;;;12.96;63.25
76603;BME280;65075;48.390;17.598;2023-04-29T07:36:01;99615.72;;;12.95;63.63
76603;BME280;65075;48.390;17.598;2023-04-29T07:38:27;99615.94;;;14.00;61.35
76603;BME280;65075;48.390;17.598;2023-04-29T07:40:54;99629.03;;;13.51;64.40
76603;BME280;65075;48.390;17.598;2023-04-29T07:43:19;99629.22;;;14.83;59.79
76603;BME280;65075;48.390;17.598;2023-04-29T07:45:46;99630.00;;;13.94;62.35
76603;BME280;65075;48.390;17.598;2023-04-29T07:48:12;99632.84;;;14.07;63.50
76603;BME280;65075;48.390;17.598;2023-04-29T07:50:37;99631.00;;;13.01;66.57
76603;BME280;65075;48.390;17.598;2023-04-29T07:53:03;99639.16;;;15.72;58.77
76603;BME280;65075;48.390;17.598;2023-04-29T07:55:29;99619.28;;;15.06;61.04
76603;BME280;65075;48.390;17.598;2023-04-29T07:57:56;99631.31;;;14.49;63.95
76603;BME280;65075;48.390;17.598;2023-04-29T08:00:23;99633.75;;;15.49;59.11
76603;BME280;65075;48.390;17.598;2023-04-29T08:02:55;99621.16;;;15.61;59.86
76603;BME280;65075;48.390;17.598;2023-04-29T08:05:22;99630.66;;;15.18;60.27
76603;BME280;65075;48.390;17.598;2023-04-29T08:07:48;99624.53;;;14.65;62.58
76603;BME280;65075;48.390;17.598;2023-04-29T08:10:15;99621.97;;;13.73;66.67
76603;BME280;65075;48.390;17.598;2023-04-29T08:12:44;99627.91;;;14.38;65.18
76603;BME280;65075;48.390;17.598;2023-04-29T08:15:10;99618.56;;;13.24;67.15
76603;BME280;65075;48.390;17.598;2023-04-29T08:17:35;99628.91;;;14.66;64.23
76603;BME280;65075;48.390;17.598;2023-04-29T08:20:01;99631.25;;;14.06;65.43
76603;BME280;65075;48.390;17.598;2023-04-29T08:22:28;99621.91;;;14.31;64.21
76603;BME280;65075;48.390;17.598;2023-04-29T08:24:53;99583.56;;;12.72;69.45
76603;BME280;65075;48.390;17.598;2023-04-29T08:27:20;99583.88;;;13.04;70.62
76603;BME280;65075;48.390;17.598;2023-04-29T08:29:46;99571.28;;;13.08;69.00
76603;BME280;65075;48.390;17.598;2023-04-29T08:32:12;99584.34;;;13.16;70.42
76603;BME280;65075;48.390;17.598;2023-04-29T08:34:37;99578.00;;;12.82;70.03
76603;BME280;65075;48.390;17.598;2023-04-29T08:37:03;99593.22;;;14.18;67.48
76603;BME280;65075;48.390;17.598;2023-04-29T08:39:29;99594.59;;;13.40;67.76
76603;BME280;65075;48.390;17.598;2023-04-29T08:41:56;99623.44;;;15.03;62.21
76603;BME280;65075;48.390;17.598;2023-04-29T08:44:22;99650.25;;;13.69;67.08
76603;BME280;65075;48.390;17.598;2023-04-29T08:46:49;99641.84;;;15.21;63.26
76603;BME280;65075;48.390;17.598;2023-04-29T08:49:15;99627.75;;;15.09;60.22
76603;BME280;65075;48.390;17.598;2023-04-29T08:51:41;99631.31;;;15.79;59.88
76603;BME280;65075;48.390;17.598;2023-04-29T08:54:06;99631.94;;;14.17;64.88
76603;BME280;65075;48.390;17.598;2023-04-29T08:56:32;99640.59;;;16.56;57.84
76603;BME280;65075;48.390;17.598;2023-04-29T08:59:00;99648.81;;;17.69;52.00
76603;BME280;65075;48.390;17.598;2023-04-29T09:01:28;99644.63;;;17.00;55.55
76603;BME280;65075;48.390;17.598;2023-04-29T09:04:14;99637.75;;;14.63;60.12
76603;BME280;65075;48.390;17.598;2023-04-29T09:06:43;99639.03;;;15.64;57.10
76603;BME280;65075;48.390;17.598;2023-04-29T09:09:10;99636.63;;;14.64;60.32
76603;BME280;65075;48.390;17.598;2023-04-29T09:11:36;99626.97;;;15.60;57.83
76603;BME280;65075;48.390;17.598;2023-04-29T09:14:02;99632.09;;;17.16;52.35
76603;BME280;65075;48.390;17.598;2023-04-29T09:16:28;99617.38;;;16.85;54.26
76603;BME280;65075;48.390;17.598;2023-04-29T09:18:55;99633.78;;;17.84;49.75
76603;BME280;65075;48.390;17.598;2023-04-29T09:21:26;99621.75;;;19.23;45.34
76603;BME280;65075;48.390;17.598;2023-04-29T09:24:00;99615.03;;;15.96;53.49
76603;BME280;65075;48.390;17.598;2023-04-29T09:26:34;99611.34;;;16.01;54.85
76603;BME280;65075;48.390;17.598;2023-04-29T09:29:12;99628.78;;;17.86;50.52
76603;BME280;65075;48.390;17.598;2023-04-29T09:31:39;99636.69;;;18.40;47.40
76603;BME280;65075;48.390;17.598;2023-04-29T09:34:05;99616.41;;;16.26;56.04
76603;BME280;65075;48.390;17.598;2023-04-29T09:36:41;99624.75;;;17.47;50.21
76603;BME280;65075;48.390;17.598;2023-04-29T09:39:08;99629.91;;;17.62;51.14
76603;BME280;65075;48.390;17.598;2023-04-29T09:44:20;99621.63;;;18.24;50.29
76603;BME280;65075;48.390;17.598;2023-04-29T09:47:02;99594.56;;;15.89;55.33
76603;BME280;65075;48.390;17.598;2023-04-29T09:49:31;99610.22;;;15.75;56.68
76603;BME280;65075;48.390;17.598;2023-04-29T09:52:04;99624.66;;;19.27;51.51
76603;BME280;65075;48.390;17.598;2023-04-29T09:54:33;99615.28;;;18.15;49.13
76603;BME280;65075;48.390;17.598;2023-04-29T09:57:00;99605.84;;;16.01;55.22
76603;BME280;65075;48.390;17.598;2023-04-29T09:59:34;99611.97;;;17.29;53.42
76603;BME280;65075;48.390;17.598;2023-04-29T10:02:05;99600.06;;;16.16;56.31
76603;BME280;65075;48.390;17.598;2023-04-29T10:04:34;99600.50;;;18.50;48.88
76603;BME280;65075;48.390;17.598;2023-04-29T10:07:03;99604.59;;;20.74;44.24
76603;BME280;65075;48.390;17.598;2023-04-29T10:09:30;99603.69;;;19.17;47.83
76603;BME280;65075;48.390;17.598;2023-04-29T10:11:56;99599.56;;;16.69;52.95
76603;BME280;65075;48.390;17.598;2023-04-29T10:14:24;99591.38;;;17.13;52.96
76603;BME280;65075;48.390;17.598;2023-04-29T10:17:01;99602.38;;;18.41;49.32
76603;BME280;65075;48.390;17.598;2023-04-29T10:20:02;99600.25;;;18.38;48.63
76603;BME280;65075;48.390;17.598;2023-04-29T10:25:14;99599.75;;;17.66;51.21
76603;BME280;65075;48.390;17.598;2023-04-29T10:27:44;99568.66;;;19.73;46.00
76603;BME280;65075;48.390;17.598;2023-04-29T10:30:16;99592.19;;;15.82;57.03
76603;BME280;65075;48.390;17.598;2023-04-29T10:32:43;99588.13;;;16.62;54.88
76603;BME280;65075;48.390;17.598;2023-04-29T10:35:11;99603.97;;;17.28;53.82
76603;BME280;65075;48.390;17.598;2023-04-29T10:37:44;99582.84;;;18.29;50.78
76603;BME280;65075;48.390;17.598;2023-04-29T10:40:30;99599.75;;;18.36;50.16
76603;BME280;65075;48.390;17.598;2023-04-29T10:43:01;99610.31;;;18.73;50.97
76603;BME280;65075;48.390;17.598;2023-04-29T10:45:28;99615.84;;;17.95;50.45
76603;BME280;65075;48.390;17.598;2023-04-29T10:50:33;99607.03;;;17.04;54.05
76603;BME280;65075;48.390;17.598;2023-04-29T10:53:04;99613.56;;;17.08;54.13
76603;BME280;65075;48.390;17.598;2023-04-29T10:55:30;99604.84;;;16.24;55.63
76603;BME280;65075;48.390;17.598;2023-04-29T10:58:00;99594.09;;;16.55;56.94
76603;BME280;65075;48.390;17.598;2023-04-29T11:00:29;99574.06;;;16.99;54.36
76603;BME280;65075;48.390;17.598;2023-04-29T11:03:00;99585.41;;;18.17;50.93
76603;BME280;65075;48.390;17.598;2023-04-29T11:05:37;99593.19;;;16.82;54.92
76603;BME280;65075;48.390;17.598;2023-04-29T11:08:19;99596.22;;;18.44;49.78
76603;BME280;65075;48.390;17.598;2023-04-29T11:11:00;99589.94;;;16.80;55.09
76603;BME280;65075;48.390;17.598;2023-04-29T11:13:29;99575.22;;;17.64;53.34
76603;BME280;65075;48.390;17.598;2023-04-29T11:16:07;99584.50;;;17.68;51.81
76603;BME280;65075;48.390;17.598;2023-04-29T11:18:34;99579.09;;;18.81;48.22
76603;BME280;65075;48.390;17.598;2023-04-29T11:23:37;99578.31;;;16.83;54.52
76603;BME280;65075;48.390;17.598;2023-04-29T11:26:04;99582.34;;;16.49;55.80
76603;BME280;65075;48.390;17.598;2023-04-29T11:28:30;99588.75;;;17.08;54.99
76603;BME280;65075;48.390;17.598;2023-04-29T11:30:57;99599.94;;;16.76;53.21
76603;BME280;65075;48.390;17.598;2023-04-29T11:33:24;99594.44;;;16.76;52.90
76603;BME280;65075;48.390;17.598;2023-04-29T11:35:51;99604.44;;;16.85;53.85
76603;BME280;65075;48.390;17.598;2023-04-29T11:38:17;99582.44;;;17.52;52.03
76603;BME280;65075;48.390;17.598;2023-04-29T11:40:48;99588.28;;;18.03;52.63
76603;BME280;65075;48.390;17.598;2023-04-29T11:43:18;99588.13;;;17.33;55.95
76603;BME280;65075;48.390;17.598;2023-04-29T11:45:48;99530.22;;;16.39;57.28
76603;BME280;65075;48.390;17.598;2023-04-29T11:48:21;99586.44;;;17.46;55.76
76603;BME280;65075;48.390;17.598;2023-04-29T11:50:50;99578.75;;;19.77;49.54
76603;BME280;65075;48.390;17.598;2023-04-29T11:53:18;99580.16;;;19.92;49.28
76603;BME280;65075;48.390;17.598;2023-04-29T11:55:45;99568.31;;;17.53;55.05
76603;BME280;65075;48.390;17.598;2023-04-29T11:58:13;99525.78;;;18.16;52.11
76603;BME280;65075;48.390;17.598;2023-04-29T12:00:39;99575.69;;;19.27;49.89
76603;BME280;65075;48.390;17.598;2023-04-29T12:03:16;99583.34;;;19.05;50.42
76603;BME280;65075;48.390;17.598;2023-04-29T12:05:55;99574.53;;;19.71;49.33
76603;BME280;65075;48.390;17.598;2023-04-29T12:08:25;99567.72;;;19.60;50.32
76603;BME280;65075;48.390;17.598;2023-04-29T12:10:57;99548.50;;;18.13;55.07
76603;BME280;65075;48.390;17.598;2023-04-29T12:13:26;99554.69;;;18.83;52.83
76603;BME280;65075;48.390;17.598;2023-04-29T12:15:52;99516.44;;;19.54;49.92
76603;BME280;65075;48.390;17.598;2023-04-29T12:18:19;99552.41;;;18.12;55.27
76603;BME280;65075;48.390;17.598;2023-04-29T12:20:48;99556.16;;;18.16;54.02
76603;BME280;65075;48.390;17.598;2023-04-29T12:23:19;99557.25;;;16.87;57.31
76603;BME280;65075;48.390;17.598;2023-04-29T12:25:49;99563.25;;;17.25;58.47
76603;BME280;65075;48.390;17.598;2023-04-29T12:28:16;99552.63;;;18.98;52.24
76603;BME280;65075;48.390;17.598;2023-04-29T12:30:43;99533.56;;;18.70;53.33
76603;BME280;65075;48.390;17.598;2023-04-29T12:33:09;99545.66;;;18.44;54.97
76603;BME280;65075;48.390;17.598;2023-04-29T12:35:38;99546.06;;;16.83;57.94
76603;BME280;65075;48.390;17.598;2023-04-29T12:38:04;99534.84;;;17.68;56.44
76603;BME280;65075;48.390;17.598;2023-04-29T12:40:31;99545.09;;;18.81;52.61
76603;BME280;65075;48.390;17.598;2023-04-29T12:42:57;99541.34;;;19.54;51.04
76603;BME280;65075;48.390;17.598;2023-04-29T12:47:52;99465.41;;;17.84;54.54
76603;BME280;65075;48.390;17.598;2023-04-29T12:50:19;99520.50;;;17.36;54.99
76603;BME280;65075;48.390;17.598;2023-04-29T12:52:45;99523.25;;;16.55;57.44
76603;BME280;65075;48.390;17.598;2023-04-29T12:55:11;99530.25;;;17.64;54.50
76603;BME280;65075;48.390;17.598;2023-04-29T12:57:36;99545.81;;;17.91;54.29
76603;BME280;65075;48.390;17.598;2023-04-29T13:00:04;99540.69;;;18.06;54.04
76603;BME280;65075;48.390;17.598;2023-04-29T13:02:31;99511.78;;;18.60;51.20
76603;BME280;65075;48.390;17.598;2023-04-29T13:04:57;99525.03;;;19.61;49.24
76603;BME280;65075;48.390;17.598;2023-04-29T13:07:22;99532.75;;;19.38;50.68
76603;BME280;65075;48.390;17.598;2023-04-29T13:09:51;99533.41;;;18.19;53.99
76603;BME280;65075;48.390;17.598;2023-04-29T13:12:17;99535.84;;;18.68;51.93